Time;durP1;ratioP1;P1;durP2;ratioP2;P2;SDS_P1;SDS_P2;PMS_P1;PMS_P2;Temp;Humidity;BMP_temperature;BMP_pressure;BME280_temperature;BME280_humidity;BME280_pressure;Samples;Min_cycle;Max_cycle;Signal;HPM_P1;HPM_P2
2023/07/23 00:01:38;;;;;;;23.33;6.70;;;;;;;;;;6176265;23;20072;-54
2023/07/23 00:04:06;;;;;;;14.80;5.88;;;;;;;;;;6177259;23;20107;-55
2023/07/23 00:06:40;;;;;;;19.33;6.38;;;;;;;;;;6176053;23;20085;-54
2023/07/23 00:09:08;;;;;;;14.00;6.43;;;;;;;;;;6177561;23;20029;-56
2023/07/23 00:11:42;;;;;;;22.42;7.25;;;;;;;;;;6177091;23;20025;-55
2023/07/23 00:14:09;;;;;;;19.70;6.75;;;;;;;;;;6177741;23;20021;-60
2023/07/23 00:16:37;;;;;;;16.48;6.75;;;;;;;;;;6176086;23;20369;-59
2023/07/23 00:19:15;;;;;;;19.70;6.53;;;;;;;;;;6177585;23;20100;-59
2023/07/23 00:21:42;;;;;;;24.48;6.63;;;;;;;;;;6175411;23;20083;-59
2023/07/23 00:24:17;;;;;;;14.40;6.18;;;;;;;;;;6177293;23;20033;-58
2023/07/23 00:26:51;;;;;;;14.95;6.78;;;;;;;;;;6176146;23;20036;-54
2023/07/23 00:29:32;;;;;;;18.35;6.22;;;;;;;;;;6177486;23;20514;-54
2023/07/23 00:31:59;;;;;;;17.42;6.85;;;;;;;;;;6175282;23;20108;-53
2023/07/23 00:34:33;;;;;;;20.92;6.57;;;;;;;;;;6177033;23;20496;-52
2023/07/23 00:37:01;;;;;;;14.13;6.53;;;;;;;;;;6176691;23;20028;-51
2023/07/23 00:39:28;;;;;;;16.73;6.38;;;;;;;;;;6176987;23;20488;-53
2023/07/23 00:42:02;;;;;;;20.38;7.00;;;;;;;;;;6177562;23;20087;-53
2023/07/23 00:44:30;;;;;;;19.05;6.65;;;;;;;;;;6175642;23;20032;-51
2023/07/23 00:46:58;;;;;;;14.18;6.40;;;;;;;;;;6176602;23;20394;-53
2023/07/23 00:49:32;;;;;;;12.15;6.47;;;;;;;;;;6177037;23;20560;-52
2023/07/23 00:52:00;;;;;;;14.50;6.78;;;;;;;;;;6176083;23;20424;-52
2023/07/23 00:54:34;;;;;;;17.50;6.80;;;;;;;;;;6176031;23;20083;-60
2023/07/23 00:57:02;;;;;;;;;;;;;;;;;;6177117;23;20249;-65
2023/07/23 00:59:32;;;;;;;19.40;7.22;;;;;;;;;;6175842;23;19923;-64
2023/07/23 01:02:06;;;;;;;19.48;6.30;;;;;;;;;;6175491;23;20021;-64
2023/07/23 01:04:34;;;;;;;16.23;6.35;;;;;;;;;;6177431;23;20083;-64
2023/07/23 01:07:07;;;;;;;15.95;6.53;;;;;;;;;;6175442;23;20028;-64
2023/07/23 01:09:35;;;;;;;;;;;;;;;;;;6176500;23;20044;-64
2023/07/23 01:12:02;;;;;;;20.15;7.00;;;;;;;;;;6176436;23;19916;-60
2023/07/23 01:14:36;;;;;;;17.67;6.78;;;;;;;;;;6176813;23;20025;-60
2023/07/23 01:17:03;;;;;;;10.23;6.40;;;;;;;;;;6175379;23;20432;-60
2023/07/23 01:19:37;;;;;;;16.63;7.13;;;;;;;;;;6176661;23;20021;-60
2023/07/23 01:22:08;;;;;;;16.13;6.97;;;;;;;;;;6174268;23;20028;-53
2023/07/23 01:24:35;;;;;;;18.02;7.55;;;;;;;;;;6177122;23;20036;-50
2023/07/23 01:27:16;;;;;;;27.48;7.15;;;;;;;;;;6174071;23;20439;-52
2023/07/23 01:29:43;;;;;;;18.63;7.90;;;;;;;;;;6175311;23;20484;-52
2023/07/23 01:32:17;;;;;;;18.52;7.07;;;;;;;;;;6176277;23;20079;-51
2023/07/23 01:34:45;;;;;;;17.13;7.55;;;;;;;;;;6176092;23;20036;-49
2023/07/23 01:37:13;;;;;;;15.32;6.60;;;;;;;;;;6175715;23;20088;-50
2023/07/23 01:39:47;;;;;;;18.60;7.90;;;;;;;;;;6175455;23;20396;-60
2023/07/23 01:42:15;;;;;;;22.55;7.70;;;;;;;;;;6176712;23;20017;-60
2023/07/23 01:44:42;;;;;;;22.88;7.80;;;;;;;;;;6173167;23;20084;-60
2023/07/23 01:47:16;;;;;;;22.13;7.65;;;;;;;;;;6174906;23;20044;-60
2023/07/23 01:49:43;;;;;;;18.65;7.30;;;;;;;;;;6173765;23;20082;-51
2023/07/23 01:52:17;;;;;;;19.98;7.95;;;;;;;;;;6176692;23;20024;-60
2023/07/23 01:54:44;;;;;;;16.88;7.38;;;;;;;;;;6176998;23;20025;-60
2023/07/23 01:57:11;;;;;;;18.90;7.75;;;;;;;;;;6175203;23;20021;-60
2023/07/23 01:59:47;;;;;;;23.63;7.53;;;;;;;;;;6175729;23;20025;-60
2023/07/23 02:02:14;;;;;;;30.63;8.30;;;;;;;;;;6175593;23;20475;-60
2023/07/23 02:04:48;;;;;;;23.00;8.10;;;;;;;;;;6175763;23;20033;-59
2023/07/23 02:07:15;;;;;;;17.02;7.80;;;;;;;;;;6175741;23;20068;-58
2023/07/23 02:09:42;;;;;;;16.40;8.07;;;;;;;;;;6176479;23;20025;-58
2023/07/23 02:12:16;;;;;;;17.25;7.95;;;;;;;;;;6173323;23;20432;-59
2023/07/23 02:14:43;;;;;;;26.17;9.32;;;;;;;;;;6176232;23;20408;-58
2023/07/23 02:17:11;;;;;;;18.90;8.80;;;;;;;;;;6175542;23;20080;-60
2023/07/23 02:19:44;;;;;;;24.42;8.27;;;;;;;;;;6175117;23;20048;-49
2023/07/23 02:22:11;;;;;;;19.75;9.27;;;;;;;;;;6174546;23;20083;-58
2023/07/23 02:24:45;;;;;;;21.98;9.15;;;;;;;;;;6174272;23;20025;-58
2023/07/23 02:27:19;;;;;;;26.98;10.25;;;;;;;;;;6174492;23;20476;-57
2023/07/23 02:29:52;;;;;;;19.85;9.45;;;;;;;;;;6173026;23;20028;-58
2023/07/23 02:32:19;;;;;;;27.60;8.57;;;;;;;;;;6176447;23;20025;-59
2023/07/23 02:34:47;;;;;;;28.77;9.82;;;;;;;;;;6173163;23;20057;-58
2023/07/23 02:37:23;;;;;;;16.17;9.13;;;;;;;;;;6174922;23;20559;-59
2023/07/23 02:39:52;;;;;;;22.98;10.07;;;;;;;;;;6176087;23;20083;-59
2023/07/23 02:42:29;;;;;;;27.58;9.88;;;;;;;;;;6174623;23;20028;-58
2023/07/23 02:44:56;;;;;;;21.58;10.02;;;;;;;;;;6175067;23;20024;-58
2023/07/23 02:47:23;;;;;;;18.67;9.93;;;;;;;;;;6174728;23;20755;-64
2023/07/23 02:49:57;;;;;;;18.20;10.55;;;;;;;;;;6174395;23;20025;-60
2023/07/23 02:52:25;;;;;;;27.20;11.30;;;;;;;;;;6174860;23;20025;-60
2023/07/23 02:54:52;;;;;;;19.25;10.25;;;;;;;;;;6175035;23;20021;-60
2023/07/23 02:57:25;;;;;;;32.33;10.77;;;;;;;;;;6173760;23;20025;-60
2023/07/23 02:59:52;;;;;;;25.45;11.68;;;;;;;;;;6176562;23;20453;-59
2023/07/23 03:02:26;;;;;;;27.27;10.40;;;;;;;;;;6174911;23;20028;-60
2023/07/23 03:04:53;;;;;;;22.77;10.77;;;;;;;;;;6176011;23;20365;-53
2023/07/23 03:07:21;;;;;;;26.50;10.48;;;;;;;;;;6174865;23;20071;-50
2023/07/23 03:09:54;;;;;;;24.58;10.82;;;;;;;;;;6175994;23;20091;-49
2023/07/23 03:12:22;;;;;;;35.58;11.55;;;;;;;;;;6175580;23;20021;-52
2023/07/23 03:14:55;;;;;;;29.50;11.77;;;;;;;;;;6173541;23;20025;-60
2023/07/23 03:17:23;;;;;;;29.08;11.85;;;;;;;;;;6176017;23;20032;-49
2023/07/23 03:19:51;;;;;;;25.23;11.20;;;;;;;;;;6175205;23;20480;-51
2023/07/23 03:22:26;;;;;;;26.35;11.77;;;;;;;;;;6174613;23;20395;-49
2023/07/23 03:24:53;;;;;;;37.88;11.50;;;;;;;;;;6149894;23;20021;-50
2023/07/23 03:27:34;;;;;;;22.63;11.65;;;;;;;;;;6173355;23;20035;-50
2023/07/23 03:30:08;;;;;;;32.45;11.27;;;;;;;;;;6175804;23;20021;-53
2023/07/23 03:32:42;;;;;;;18.92;10.77;;;;;;;;;;6174882;23;20021;-61
2023/07/23 03:35:16;;;;;;;26.98;11.38;;;;;;;;;;6175460;23;20021;-60
2023/07/23 03:37:43;;;;;;;36.15;11.75;;;;;;;;;;6174364;23;20083;-60
2023/07/23 03:40:17;;;;;;;28.50;11.73;;;;;;;;;;6175221;23;20099;-60
2023/07/23 03:42:44;;;;;;;23.02;11.50;;;;;;;;;;6173794;23;20025;-58
2023/07/23 03:45:11;;;;;;;23.88;11.23;;;;;;;;;;6173687;23;20025;-60
2023/07/23 03:47:45;;;;;;;25.70;11.70;;;;;;;;;;6174580;23;20139;-61
2023/07/23 03:50:12;;;;;;;35.38;12.20;;;;;;;;;;6176911;23;20025;-61
2023/07/23 03:52:46;;;;;;;22.77;11.25;;;;;;;;;;6173858;23;20024;-60
2023/07/23 03:55:14;;;;;;;24.77;11.45;;;;;;;;;;6174751;23;20388;-61
2023/07/23 03:57:47;;;;;;;32.83;12.20;;;;;;;;;;6175634;23;20087;-61
2023/07/23 04:00:15;;;;;;;26.20;11.35;;;;;;;;;;6174866;23;20021;-61
2023/07/23 04:02:42;;;;;;;29.63;11.18;;;;;;;;;;6174407;23;20029;-55
2023/07/23 04:05:16;;;;;;;21.05;10.60;;;;;;;;;;6174895;23;20448;-53
2023/07/23 04:07:44;;;;;;;24.48;10.48;;;;;;;;;;6173571;23;20044;-54
2023/07/23 04:10:11;;;;;;;19.17;9.88;;;;;;;;;;6173723;23;20500;-53
2023/07/23 04:12:45;;;;;;;17.33;7.15;;;;;;;;;;6174704;23;20029;-59
2023/07/23 04:15:12;;;;;;;14.52;6.20;;;;;;;;;;6175832;23;20029;-60
2023/07/23 04:17:46;;;;;;;17.65;6.50;;;;;;;;;;6173297;23;20021;-60
2023/07/23 04:20:20;;;;;;;13.23;5.40;;;;;;;;;;6176513;23;20031;-60
2023/07/23 04:22:55;;;;;;;12.27;5.00;;;;;;;;;;6173604;23;20017;-61
2023/07/23 04:25:22;;;;;;;12.25;5.07;;;;;;;;;;6175901;23;20025;-60
2023/07/23 04:27:49;;;;;;;13.77;4.82;;;;;;;;;;6172311;23;20129;-61
2023/07/23 04:30:25;;;;;;;10.82;5.18;;;;;;;;;;6176618;23;20021;-61
2023/07/23 04:32:52;;;;;;;11.52;4.90;;;;;;;;;;6173616;23;20424;-61
2023/07/23 04:35:26;;;;;;;10.85;5.00;;;;;;;;;;6175155;23;20504;-61
2023/07/23 04:37:53;;;;;;;8.52;4.75;;;;;;;;;;6175834;23;20034;-61
2023/07/23 04:40:21;;;;;;;9.32;4.80;;;;;;;;;;6177581;23;20061;-62
2023/07/23 04:42:55;;;;;;;12.93;4.72;;;;;;;;;;6177634;23;20036;-59
2023/07/23 04:45:22;;;;;;;11.50;4.70;;;;;;;;;;6176090;23;20028;-59
2023/07/23 04:47:50;;;;;;;10.35;4.15;;;;;;;;;;6175618;23;20088;-59
2023/07/23 04:50:23;;;;;;;11.63;4.90;;;;;;;;;;6175936;23;20048;-59
2023/07/23 04:52:50;;;;;;;16.58;4.35;;;;;;;;;;6175695;23;20032;-60
2023/07/23 04:55:30;;;;;;;8.05;4.32;;;;;;;;;;6176374;23;20029;-59
2023/07/23 04:58:03;;;;;;;9.73;4.63;;;;;;;;;;6176190;23;20025;-66
2023/07/23 05:00:37;;;;;;;12.38;5.00;;;;;;;;;;6176772;23;20025;-66
2023/07/23 05:03:04;;;;;;;14.55;4.78;;;;;;;;;;6174600;23;20532;-66
2023/07/23 05:05:32;;;;;;;6.40;3.53;;;;;;;;;;6177336;23;20025;-66
2023/07/23 05:08:05;;;;;;;10.18;4.95;;;;;;;;;;6175930;23;20029;-60
2023/07/23 05:10:32;;;;;;;13.70;4.63;;;;;;;;;;6176277;23;20025;-62
2023/07/23 05:13:06;;;;;;;14.15;4.45;;;;;;;;;;6174589;23;20083;-58
2023/07/23 05:15:34;;;;;;;16.80;4.72;;;;;;;;;;6175321;23;20087;-59
2023/07/23 05:18:01;;;;;;;9.95;4.80;;;;;;;;;;6175452;23;20060;-59
2023/07/23 05:20:34;;;;;;;13.00;4.32;;;;;;;;;;6177785;23;20028;-59
2023/07/23 05:23:01;;;;;;;10.85;4.38;;;;;;;;;;6175132;23;20025;-59
2023/07/23 05:25:29;;;;;;;8.30;4.28;;;;;;;;;;6176928;23;20466;-59
2023/07/23 05:28:09;;;;;;;13.20;4.78;;;;;;;;;;6174605;23;20091;-62
2023/07/23 05:30:36;;;;;;;11.20;4.57;;;;;;;;;;6175119;23;20021;-62
2023/07/23 05:33:11;;;;;;;14.30;4.53;;;;;;;;;;6173131;23;20560;-62
2023/07/23 05:35:39;;;;;;;9.82;4.35;;;;;;;;;;6176184;23;20029;-62
2023/07/23 05:38:06;;;;;;;11.13;4.90;;;;;;;;;;6175619;23;20025;-66
2023/07/23 05:40:40;;;;;;;15.88;5.03;;;;;;;;;;6176309;23;20029;-66
2023/07/23 05:43:08;;;;;;;14.10;5.03;;;;;;;;;;6175491;23;20031;-66
2023/07/23 05:45:42;;;;;;;11.20;4.43;;;;;;;;;;6176562;23;20076;-66
2023/07/23 05:48:09;;;;;;;13.23;4.43;;;;;;;;;;6176501;23;20099;-66
2023/07/23 05:50:37;;;;;;;8.32;4.13;;;;;;;;;;6174107;23;20060;-66
2023/07/23 05:53:11;;;;;;;10.63;4.40;;;;;;;;;;6174937;23;20025;-64
2023/07/23 05:55:38;;;;;;;14.07;4.95;;;;;;;;;;6177240;23;20024;-56
2023/07/23 05:58:11;;;;;;;7.82;4.35;;;;;;;;;;6176661;23;20021;-57
2023/07/23 06:00:38;;;;;;;12.02;4.40;;;;;;;;;;6173578;23;20028;-56
2023/07/23 06:03:06;;;;;;;11.48;4.28;;;;;;;;;;6175131;23;20103;-56
2023/07/23 06:05:39;;;;;;;12.02;4.13;;;;;;;;;;6175639;23;20493;-65
2023/07/23 06:08:06;;;;;;;17.05;4.53;;;;;;;;;;6175495;23;20028;-51
2023/07/23 06:10:41;;;;;;;14.60;4.22;;;;;;;;;;6172046;23;20083;-55
2023/07/23 06:13:08;;;;;;;11.23;4.28;;;;;;;;;;6175086;23;20025;-52
2023/07/23 06:15:42;;;;;;;10.38;4.50;;;;;;;;;;6175086;23;20025;-53
2023/07/23 06:18:16;;;;;;;20.38;4.07;;;;;;;;;;6174440;23;20089;-52
2023/07/23 06:20:43;;;;;;;6.22;3.95;;;;;;;;;;6175003;23;20087;-49
2023/07/23 06:23:10;;;;;;;16.88;4.80;;;;;;;;;;6149157;23;20123;-54
2023/07/23 06:25:45;;;;;;;8.77;4.00;;;;;;;;;;6176836;23;20021;-54
2023/07/23 06:28:19;;;;;;;12.70;3.92;;;;;;;;;;6143568;23;20022;-54
2023/07/23 06:30:53;;;;;;;9.73;3.97;;;;;;;;;;6144206;23;20543;-54
2023/07/23 06:33:20;;;;;;;14.35;4.85;;;;;;;;;;6145901;23;20025;-58
2023/07/23 06:35:48;;;;;;;10.63;4.47;;;;;;;;;;6145070;23;20084;-61
2023/07/23 06:38:22;;;;;;;6.50;3.60;;;;;;;;;;6142137;23;20413;-65
2023/07/23 06:40:51;;;;;;;7.43;3.72;;;;;;;;;;6145934;23;20392;-65
2023/07/23 06:43:26;;;;;;;15.13;3.88;;;;;;;;;;6144660;23;20029;-65
2023/07/23 06:45:53;;;;;;;9.43;3.67;;;;;;;;;;6144106;23;20029;-64
2023/07/23 06:48:21;;;;;;;11.77;4.13;;;;;;;;;;6146126;23;20025;-64
2023/07/23 06:50:57;;;;;;;8.30;3.35;;;;;;;;;;6143171;23;20428;-65
2023/07/23 06:53:24;;;;;;;10.00;3.75;;;;;;;;;;6141082;23;20531;-59
2023/07/23 06:56:03;;;;;;;8.68;3.72;;;;;;;;;;6144572;23;20096;-58
2023/07/23 06:58:38;;;;;;;9.00;3.70;;;;;;;;;;6143936;23;20092;-59
2023/07/23 07:01:06;;;;;;;7.00;3.17;;;;;;;;;;6145817;23;20026;-59
2023/07/23 07:03:40;;;;;;;7.35;2.72;;;;;;;;;;6138359;23;20037;-58
2023/07/23 07:06:07;;;;;;;7.50;2.90;;;;;;;;;;6145528;23;20025;-51
2023/07/23 07:08:35;;;;;;;6.07;3.13;;;;;;;;;;6144400;23;20061;-53
2023/07/23 07:11:10;;;;;;;6.13;2.40;;;;;;;;;;6146387;23;20100;-53
2023/07/23 07:13:38;;;;;;;9.35;2.88;;;;;;;;;;6144508;23;20053;-52
2023/07/23 07:16:12;;;;;;;8.38;2.80;;;;;;;;;;6145435;23;20088;-54
2023/07/23 07:18:40;;;;;;;7.03;3.00;;;;;;;;;;6147007;23;20373;-50
2023/07/23 07:21:07;;;;;;;5.88;2.65;;;;;;;;;;6148106;23;20069;-58
2023/07/23 07:23:40;;;;;;;5.45;2.72;;;;;;;;;;6144957;23;20453;-58
2023/07/23 07:26:14;;;;;;;12.38;3.17;;;;;;;;;;6146481;23;20025;-58
2023/07/23 07:28:55;;;;;;;5.78;2.83;;;;;;;;;;6175252;23;20084;-58
2023/07/23 07:31:22;;;;;;;4.55;2.92;;;;;;;;;;6171659;23;20083;-58
2023/07/23 07:33:58;;;;;;;4.85;2.78;;;;;;;;;;6172411;23;20407;-53
2023/07/23 07:36:26;;;;;;;4.22;2.40;;;;;;;;;;6174874;23;20025;-55
2023/07/23 07:38:53;;;;;;;8.93;2.90;;;;;;;;;;6173755;23;20021;-56
2023/07/23 07:41:27;;;;;;;5.72;2.72;;;;;;;;;;6175309;23;20087;-56
2023/07/23 07:43:55;;;;;;;8.00;3.08;;;;;;;;;;6174111;23;20020;-56
2023/07/23 07:46:29;;;;;;;7.30;2.60;;;;;;;;;;6173037;23;20435;-53
2023/07/23 07:48:57;;;;;;;5.35;2.65;;;;;;;;;;6175518;23;20021;-48
2023/07/23 07:51:24;;;;;;;8.68;3.08;;;;;;;;;;6173698;23;20029;-53
2023/07/23 07:53:57;;;;;;;7.22;2.83;;;;;;;;;;6174275;23;20025;-52
2023/07/23 07:56:25;;;;;;;5.43;2.53;;;;;;;;;;6173681;23;20480;-52
2023/07/23 07:58:52;;;;;;;3.53;2.30;;;;;;;;;;6174848;23;20033;-58
2023/07/23 08:01:29;;;;;;;5.22;2.25;;;;;;;;;;6174823;23;20049;-59
2023/07/23 08:03:57;;;;;;;4.90;2.60;;;;;;;;;;6174184;23;20060;-55
2023/07/23 08:06:25;;;;;;;5.72;2.78;;;;;;;;;;6174675;23;20087;-55
2023/07/23 08:08:59;;;;;;;3.95;2.20;;;;;;;;;;6175686;23;20080;-56
2023/07/23 08:11:27;;;;;;;5.32;2.25;;;;;;;;;;6176051;23;20025;-55
2023/07/23 08:13:55;;;;;;;5.03;2.67;;;;;;;;;;6175397;23;20168;-56
2023/07/23 08:16:29;;;;;;;5.25;2.67;;;;;;;;;;6176832;23;20028;-56
2023/07/23 08:18:56;;;;;;;6.20;3.13;;;;;;;;;;6177871;23;20035;-62
2023/07/23 08:21:24;;;;;;;7.32;2.60;;;;;;;;;;6177564;23;20028;-63
2023/07/23 08:23:57;;;;;;;3.53;2.30;;;;;;;;;;6177782;23;20544;-62
2023/07/23 08:26:39;;;;;;;3.65;2.10;;;;;;;;;;6177099;23;20112;-62
2023/07/23 08:29:21;;;;;;;3.83;2.00;;;;;;;;;;6177548;23;20522;-65
2023/07/23 08:31:50;;;;;;;5.03;2.00;;;;;;;;;;6175312;23;20025;-60
2023/07/23 08:34:26;;;;;;;4.10;2.10;;;;;;;;;;6175964;23;20379;-60
2023/07/23 08:36:54;;;;;;;3.47;2.45;;;;;;;;;;6175073;23;20028;-59
2023/07/23 08:39:21;;;;;;;7.05;2.30;;;;;;;;;;6177586;23;20337;-60
2023/07/23 08:42:07;;;;;;;6.80;2.50;;;;;;;;;;6175306;23;20099;-60
2023/07/23 08:44:55;;;;;;;8.07;2.70;;;;;;;;;;6176797;23;20108;-60
2023/07/23 08:47:30;;;;;;;5.85;2.33;;;;;;;;;;6177847;23;20350;-66
2023/07/23 08:49:59;;;;;;;7.32;2.88;;;;;;;;;;6176253;23;20028;-65
2023/07/23 08:52:29;;;;;;;4.15;2.50;;;;;;;;;;6178164;23;20053;-65
2023/07/23 08:55:04;;;;;;;5.60;2.67;;;;;;;;;;6178057;23;20025;-65
2023/07/23 08:57:31;;;;;;;;;;;;;;;;;;6174742;23;20021;-58
2023/07/23 08:59:59;;;;;;;7.55;2.47;;;;;;;;;;6174919;23;19979;-59
2023/07/23 09:02:33;;;;;;;6.28;2.63;;;;;;;;;;6176496;23;20092;-59
2023/07/23 09:05:00;;;;;;;8.25;2.83;;;;;;;;;;6177686;23;20021;-59
2023/07/23 09:07:36;;;;;;;2.28;2.00;;;;;;;;;;6175006;23;20587;-59
2023/07/23 09:10:03;;;;;;;4.05;2.58;;;;;;;;;;6176627;23;20032;-58
2023/07/23 09:12:30;;;;;;;12.13;2.95;;;;;;;;;;6172395;23;20031;-58
2023/07/23 09:15:05;;;;;;;6.57;2.83;;;;;;;;;;6176858;23;20025;-59
2023/07/23 09:17:32;;;;;;;2.70;2.13;;;;;;;;;;6176049;23;20028;-59
2023/07/23 09:20:10;;;;;;;3.08;2.33;;;;;;;;;;6175741;23;20048;-59
2023/07/23 09:22:37;;;;;;;7.55;2.80;;;;;;;;;;6174728;23;20347;-60
2023/07/23 09:25:04;;;;;;;9.98;2.45;;;;;;;;;;6175827;23;20028;-57
2023/07/23 09:27:47;;;;;;;5.03;2.70;;;;;;;;;;6174917;23;20435;-61
2023/07/23 09:30:21;;;;;;;4.35;2.25;;;;;;;;;;6175848;23;20021;-61
2023/07/23 09:32:56;;;;;;;4.63;2.70;;;;;;;;;;6150862;23;20387;-61
2023/07/23 09:35:24;;;;;;;3.65;2.20;;;;;;;;;;6175392;23;20049;-61
2023/07/23 09:37:58;;;;;;;8.30;2.30;;;;;;;;;;6175782;23;20026;-60
2023/07/23 09:40:33;;;;;;;3.33;2.25;;;;;;;;;;6172957;23;20547;-61
2023/07/23 09:43:01;;;;;;;4.05;2.55;;;;;;;;;;6175778;23;20032;-61
2023/07/23 09:45:36;;;;;;;4.70;2.40;;;;;;;;;;6176265;23;20017;-60
2023/07/23 09:48:03;;;;;;;3.03;2.33;;;;;;;;;;6175402;23;20032;-60
2023/07/23 09:50:43;;;;;;;5.53;2.65;;;;;;;;;;6172721;23;20453;-61
2023/07/23 09:53:16;;;;;;;2.92;2.10;;;;;;;;;;6175630;23;20025;-53
2023/07/23 09:55:44;;;;;;;6.82;2.58;;;;;;;;;;6173331;23;20487;-55
2023/07/23 09:58:12;;;;;;;2.50;2.30;;;;;;;;;;6170951;23;20435;-53
2023/07/23 10:00:46;;;;;;;2.63;2.42;;;;;;;;;;6177480;23;20492;-55
2023/07/23 10:03:15;;;;;;;3.63;2.47;;;;;;;;;;6175636;23;20288;-53
2023/07/23 10:05:49;;;;;;;4.70;2.63;;;;;;;;;;6176287;23;20443;-55
2023/07/23 10:08:17;;;;;;;4.63;2.50;;;;;;;;;;6176982;23;20033;-55
2023/07/23 10:10:45;;;;;;;6.82;2.75;;;;;;;;;;6176616;23;20083;-61
2023/07/23 10:13:19;;;;;;;3.92;2.65;;;;;;;;;;6173760;23;20048;-61
2023/07/23 10:15:47;;;;;;;4.32;2.50;;;;;;;;;;6176940;23;20099;-61
2023/07/23 10:18:23;;;;;;;3.83;2.22;;;;;;;;;;6175208;23;20025;-61
2023/07/23 10:20:51;;;;;;;5.90;2.28;;;;;;;;;;6175332;23;20035;-61
2023/07/23 10:23:18;;;;;;;;;;;;;;;;;;6177452;23;20075;-66
2023/07/23 10:26:11;;;;;;;4.15;2.25;;;;;;;;;;6176968;23;19983;-59
2023/07/23 10:28:45;;;;;;;3.45;2.20;;;;;;;;;;6174255;23;20025;-60
2023/07/23 10:31:21;;;;;;;2.60;1.98;;;;;;;;;;6176538;23;20029;-59
2023/07/23 10:33:51;;;;;;;4.38;2.22;;;;;;;;;;6175283;23;20029;-59
2023/07/23 10:36:24;;;;;;;4.28;2.22;;;;;;;;;;6174322;23;20017;-59
2023/07/23 10:39:10;;;;;;;6.30;2.20;;;;;;;;;;6174155;23;20436;-59
2023/07/23 10:41:49;;;;;;;3.13;2.03;;;;;;;;;;6176707;23;20032;-55
2023/07/23 10:44:28;;;;;;;3.63;2.15;;;;;;;;;;6175758;23;20028;-54
2023/07/23 10:47:22;;;;;;;3.63;2.22;;;;;;;;;;6176588;23;20029;-55
2023/07/23 10:50:09;;;;;;;4.53;2.13;;;;;;;;;;6175047;23;20017;-58
2023/07/23 10:52:37;;;;;;;6.55;2.40;;;;;;;;;;6176803;23;20029;-52
2023/07/23 10:55:11;;;;;;;5.88;2.55;;;;;;;;;;6176738;23;20492;-54
2023/07/23 10:57:42;;;;;;;4.78;2.15;;;;;;;;;;6172689;23;20036;-50
2023/07/23 11:00:20;;;;;;;5.45;1.92;;;;;;;;;;6176423;23;20037;-54
2023/07/23 11:02:54;;;;;;;8.65;2.20;;;;;;;;;;6175611;23;20021;-54
2023/07/23 11:05:21;;;;;;;2.97;2.20;;;;;;;;;;6174422;23;20551;-54
2023/07/23 11:08:08;;;;;;;4.35;2.25;;;;;;;;;;6176078;23;20432;-55
2023/07/23 11:10:57;;;;;;;3.20;2.13;;;;;;;;;;6177463;23;20032;-57
2023/07/23 11:13:29;;;;;;;5.20;2.22;;;;;;;;;;6149712;23;20025;-55
2023/07/23 11:16:03;;;;;;;2.78;1.98;;;;;;;;;;6176514;23;20017;-56
2023/07/23 11:18:32;;;;;;;3.60;2.45;;;;;;;;;;6176033;23;20017;-61
2023/07/23 11:21:06;;;;;;;4.97;2.30;;;;;;;;;;6175221;23;20033;-55
2023/07/23 11:23:33;;;;;;;3.33;1.95;;;;;;;;;;6175163;23;20032;-56
2023/07/23 11:26:00;;;;;;;3.00;2.22;;;;;;;;;;6177128;23;20044;-56
2023/07/23 11:28:47;;;;;;;3.45;2.10;;;;;;;;;;6174185;23;20029;-57
2023/07/23 11:31:21;;;;;;;3.70;2.50;;;;;;;;;;6175960;23;20025;-55
2023/07/23 11:34:00;;;;;;;2.97;2.10;;;;;;;;;;6175252;23;20093;-55
2023/07/23 11:36:28;;;;;;;3.25;2.35;;;;;;;;;;6177019;23;20021;-58
2023/07/23 11:38:55;;;;;;;3.95;2.03;;;;;;;;;;6176059;23;20412;-57
2023/07/23 11:41:34;;;;;;;2.42;2.13;;;;;;;;;;6174932;23;20028;-58
2023/07/23 11:44:06;;;;;;;3.58;1.92;;;;;;;;;;6173886;23;20420;-58
2023/07/23 11:46:41;;;;;;;3.03;1.92;;;;;;;;;;6176235;23;20029;-58
2023/07/23 11:49:09;;;;;;;3.10;2.33;;;;;;;;;;6175450;23;20384;-65
2023/07/23 11:51:37;;;;;;;3.58;2.15;;;;;;;;;;6177089;23;20032;-61
2023/07/23 11:54:12;;;;;;;4.38;2.30;;;;;;;;;;6175652;23;20075;-60
2023/07/23 11:56:46;;;;;;;3.20;2.38;;;;;;;;;;6175748;23;20025;-60
2023/07/23 11:59:24;;;;;;;;;;;;;;;;;;6174879;23;20451;-60
2023/07/23 12:01:58;;;;;;;6.55;2.50;;;;;;;;;;6176508;23;20426;-61
2023/07/23 12:04:38;;;;;;;4.07;2.33;;;;;;;;;;6175271;23;20496;-58
2023/07/23 12:07:06;;;;;;;2.70;2.13;;;;;;;;;;6176075;23;20024;-58
2023/07/23 12:09:36;;;;;;;4.97;2.55;;;;;;;;;;6174984;23;20095;-58
2023/07/23 12:12:13;;;;;;;4.82;2.97;;;;;;;;;;6173912;23;20025;-58
2023/07/23 12:14:41;;;;;;;3.63;2.50;;;;;;;;;;6173740;23;20443;-58
2023/07/23 12:17:15;;;;;;;4.13;2.38;;;;;;;;;;6175153;23;20033;-61
2023/07/23 12:19:43;;;;;;;3.42;2.60;;;;;;;;;;6175604;23;20161;-65
2023/07/23 12:22:10;;;;;;;3.30;2.33;;;;;;;;;;6176222;23;20838;-66
2023/07/23 12:24:45;;;;;;;5.63;2.38;;;;;;;;;;6177438;23;20031;-66
2023/07/23 12:27:12;;;;;;;;;;;;;;;;;;6175939;23;20025;-65
2023/07/23 12:29:48;;;;;;;4.97;2.63;;;;;;;;;;6174792;23;19920;-66
2023/07/23 12:32:22;;;;;;;4.82;3.00;;;;;;;;;;6174433;23;20033;-66
2023/07/23 12:34:56;;;;;;;2.90;2.50;;;;;;;;;;6174697;23;20028;-61
2023/07/23 12:37:24;;;;;;;;;;;;;;;;;;6177716;23;20021;-62
2023/07/23 12:39:51;;;;;;;4.20;2.35;;;;;;;;;;6175633;23;19924;-61
2023/07/23 12:42:25;;;;;;;3.88;2.40;;;;;;;;;;6176700;23;20128;-61
2023/07/23 12:44:52;;;;;;;4.43;2.28;;;;;;;;;;6175863;23;20435;-60
2023/07/23 12:47:29;;;;;;;3.60;2.30;;;;;;;;;;6165810;23;20361;-55
2023/07/23 12:49:58;;;;;;;;;;;;;;;;;;6170499;23;20025;-55
2023/07/23 12:52:33;;;;;;;3.88;2.40;;;;;;;;;;6174535;23;20416;-55
2023/07/23 12:55:02;;;;;;;3.50;2.20;;;;;;;;;;6172427;23;20036;-55
2023/07/23 12:57:29;;;;;;;3.60;2.40;;;;;;;;;;6173217;23;20099;-53
2023/07/23 13:00:04;;;;;;;3.08;2.30;;;;;;;;;;6175169;23;20077;-55
2023/07/23 13:02:31;;;;;;;5.63;2.55;;;;;;;;;;6174133;23;20029;-58
2023/07/23 13:05:06;;;;;;;4.13;2.25;;;;;;;;;;6175235;23;20028;-58
2023/07/23 13:07:33;;;;;;;;;;;;;;;;;;6173782;23;20033;-58
2023/07/23 13:10:00;;;;;;;3.55;2.30;;;;;;;;;;6176774;23;19916;-57
2023/07/23 13:12:34;;;;;;;3.50;2.47;;;;;;;;;;6175032;23;20032;-61
2023/07/23 13:15:01;;;;;;;;;;;;;;;;;;6175323;23;20047;-61
2023/07/23 13:17:28;;;;;;;6.03;2.38;;;;;;;;;;6171567;23;19920;-60
2023/07/23 13:20:01;;;;;;;4.63;2.40;;;;;;;;;;6174965;23;20063;-61
2023/07/23 13:22:29;;;;;;;;;;;;;;;;;;6174978;23;20032;-61
2023/07/23 13:25:02;;;;;;;3.30;2.80;;;;;;;;;;6175094;23;19920;-61
2023/07/23 13:27:36;;;;;;;3.40;2.35;;;;;;;;;;6173996;23;20028;-61
2023/07/23 13:30:10;;;;;;;3.80;2.20;;;;;;;;;;6174847;23;20534;-53
2023/07/23 13:32:38;;;;;;;7.03;2.65;;;;;;;;;;6171201;23;20547;-53
2023/07/23 13:35:05;;;;;;;;;;;;;;;;;;6176448;23;20383;-53
2023/07/23 13:37:39;;;;;;;4.38;2.42;;;;;;;;;;6172889;23;19924;-52
2023/07/23 13:40:07;;;;;;;6.30;2.50;;;;;;;;;;6174940;23;20087;-64
2023/07/23 13:42:41;;;;;;;3.95;2.55;;;;;;;;;;6175127;23;20025;-64
2023/07/23 13:45:09;;;;;;;4.03;2.28;;;;;;;;;;6175602;23;20176;-63
2023/07/23 13:47:36;;;;;;;4.40;2.50;;;;;;;;;;6177488;23;20088;-63
2023/07/23 13:50:09;;;;;;;3.95;2.42;;;;;;;;;;6177172;23;20029;-63
2023/07/23 13:52:37;;;;;;;4.78;2.45;;;;;;;;;;6176884;23;20102;-63
2023/07/23 13:55:12;;;;;;;3.67;2.50;;;;;;;;;;6175635;23;20021;-63
2023/07/23 13:57:39;;;;;;;5.90;2.60;;;;;;;;;;6175463;23;20613;-63
2023/07/23 14:00:06;;;;;;;;;;;;;;;;;;6177349;23;20032;-60
2023/07/23 14:02:42;;;;;;;4.05;2.72;;;;;;;;;;6177405;23;19920;-60
2023/07/23 14:05:11;;;;;;;4.55;2.50;;;;;;;;;;6175793;23;20021;-61
2023/07/23 14:07:38;;;;;;;5.97;2.70;;;;;;;;;;6176429;23;20025;-60
2023/07/23 14:10:12;;;;;;;3.80;2.30;;;;;;;;;;6175750;23;20359;-62
2023/07/23 14:12:39;;;;;;;3.05;2.63;;;;;;;;;;6150364;23;20095;-58
2023/07/23 14:15:14;;;;;;;8.00;2.70;;;;;;;;;;6177357;23;20025;-59
2023/07/23 14:17:41;;;;;;;3.17;2.45;;;;;;;;;;6177224;23;20113;-59
2023/07/23 14:20:09;;;;;;;3.92;2.50;;;;;;;;;;6176626;23;20032;-59
2023/07/23 14:22:43;;;;;;;2.70;2.25;;;;;;;;;;6151175;23;20028;-58
2023/07/23 14:25:10;;;;;;;3.42;2.38;;;;;;;;;;6176482;23;20071;-59
2023/07/23 14:27:57;;;;;;;4.63;2.58;;;;;;;;;;6175358;23;20029;-52
2023/07/23 14:30:31;;;;;;;3.92;2.38;;;;;;;;;;6174807;23;20169;-53
2023/07/23 14:33:06;;;;;;;3.45;2.13;;;;;;;;;;6174704;23;20025;-54
2023/07/23 14:35:34;;;;;;;3.92;2.63;;;;;;;;;;6176755;23;20436;-54
2023/07/23 14:38:01;;;;;;;3.25;2.17;;;;;;;;;;6176890;23;20029;-54
2023/07/23 14:40:35;;;;;;;3.08;2.08;;;;;;;;;;6176656;23;20040;-61
2023/07/23 14:43:02;;;;;;;4.72;2.50;;;;;;;;;;6176233;23;20080;-61
2023/07/23 14:45:35;;;;;;;5.45;2.45;;;;;;;;;;6174184;23;20075;-60
2023/07/23 14:48:03;;;;;;;3.25;2.10;;;;;;;;;;6175863;23;20032;-60
2023/07/23 14:50:30;;;;;;;;;;;;;;;;;;6174768;23;20057;-60
2023/07/23 14:53:03;;;;;;;2.85;2.15;;;;;;;;;;6176605;23;19920;-60
2023/07/23 14:55:31;;;;;;;4.60;2.30;;;;;;;;;;6175908;23;20033;-60
2023/07/23 14:58:05;;;;;;;6.18;2.30;;;;;;;;;;6175239;23;20021;-60
2023/07/23 15:00:32;;;;;;;;;;;;;;;;;;6172779;23;20033;-59
2023/07/23 15:03:05;;;;;;;3.95;2.20;;;;;;;;;;6175383;23;20788;-60
2023/07/23 15:05:40;;;;;;;3.15;1.98;;;;;;;;;;6175384;23;20020;-55